Cookies

¿Aceptas nuestras cookies?

Aceptar
VAM | Vabird-VBD

Virtual Vabird! Aerolínea Virtual de habla hispana, desde 2011




 INFORMACIÓN METAR y TAF
METAR FOR LEGE
ADDS - METARS form results

(1318 UTC 24 October 2021)
Data provider http://aviationweather.gov/metar/data/
 
METAR text: LEGE 241300Z 06005KT 360V110 9999 FEW030 FEW035TCU 20/11 Q1022
Conditions at: LEGE (GERONA/COSTA BRA, ES) observed 1300 UTC 24 October 2021
Temperature: 20.0°C (68°F)
Dewpoint: 11.0°C (52°F) [RH = 56%]
Pressure (altimeter): 30.18 inches Hg (1022.0 mb)
Winds: from the ENE (60 degrees) at 6 MPH (5 knots; 2.6 m/s)
Visibility: 6 or more miles (10+ km)
Ceiling: at least 12,000 feet AGL
Clouds: few clouds at 3000 feet AGL
few clouds at 3500 feet AGL
Weather: no significant weather observed at this time

METAR text: LEGE 241230Z 04004KT 330V120 9999 FEW030 FEW035TCU 21/12 Q1022
Conditions at: LEGE (GERONA/COSTA BRA, ES) observed 1230 UTC 24 October 2021
Temperature: 21.0°C (70°F)
Dewpoint: 12.0°C (54°F) [RH = 56%]
Pressure (altimeter): 30.18 inches Hg (1022.0 mb)
Winds: from the NE (40 degrees) at 5 MPH (4 knots; 2.1 m/s)
Visibility: 6 or more miles (10+ km)
Ceiling: at least 12,000 feet AGL
Clouds: few clouds at 3000 feet AGL
few clouds at 3500 feet AGL
Weather: no significant weather observed at this time

Forecast for: LEGE (GERONA/COSTA BRA, ES)
Text: TAF LEGE 241100Z 2412/2512 34004KT 9999 FEW030 TX21/2412Z TN10/2506Z
Forecast period: 1200 UTC 24 October 2021 to 1200 UTC 25 October 2021
Forecast type: FROM: standard forecast or significant change
Winds: from the NNW (340 degrees) at 5 MPH (4 knots; 2.1 m/s)
Visibility: 6 or more miles (10+ km)
Ceiling: at least 12,000 feet AGL
Clouds: few clouds at 3000 feet AGL
Weather: no significant weather forecast for this period
Text: TEMPO 2412/2416 04010KT
Forecast period: 1200 to 1600 UTC 24 October 2021
Forecast type: TEMPORARY: The following changes expected for less than half the time period
Winds: from the NE (40 degrees) at 12 MPH (10 knots; 5.1 m/s)
Visibility: missing
Ceiling: unknown
Clouds: missing
Weather: no significant weather forecast for this period
Text: PROB40
Forecast period: 1200 to 1800 UTC 24 October 2021
Forecast type: TEMPORARY: The following changes expected for less than half the time period
Visibility: 2.49 miles (4.01 km)
Ceiling: at least 12,000 feet AGL
Clouds: few clouds at 2500 feet AGL
Weather: SHRA  (rain showers)
Text: TEMPO 2412/2418 4000 SHRA FEW025TCU
Forecast period: 1800 UTC 24 October 2021 to 0600 UTC 25 October 2021
Forecast type: TEMPORARY: The following changes expected for less than half the time period
Visibility: 2.49 miles (4.01 km)
Ceiling: 1000 feet AGL
Clouds: broken clouds at 1000 feet AGL
Weather: BR  (mist)

 MAPA DE AEROPUERTO

 INFORMACIÓN DE PISTA